• Join FlightAware (Why Join?)
  • Login
  • US Flag 
10:11AM EDT


 

Airport Tracker/Info


-or-


 

Live Flight TrackerFlight Track Log ✈ C-GHVM ✈ 23-Jun-2013 ✈ CYLW - CYPK

Flight Track Log - Related Links

Times and Time Zones

All times are in EDT time to prevent confusion due to time zone crossing. See the C-GHVM flight status page for this flight to view local times or setup timezone preferences in your user account.

Time Position Orientation Groundspeed Altitude Reporting Facility
EDT Latitude Longitude Course Direction KTS MPH feet Rate Location/Type
02:28PM 49.9500 -119.3667 360° North 10 12 1,400  Level Vancouver Center
02:30PM 49.9500 -119.3667 90° East 10 12 1,400  Level Vancouver Center
02:31PM 49.9333 -119.3667 180° South 60 69 1,500 600 Climbing Vancouver Center
02:32PM 49.9000 -119.3667 180° South 130 150 2,600 1,260 Climbing Vancouver Center
02:33PM 49.8833 -119.4000 232° Southwest 120 138 4,100 1,320 Climbing Vancouver Center
02:34PM 49.8500 -119.4500 224° Southwest 120 138 5,300 1,260 Climbing Vancouver Center
02:35PM 49.8500 -119.5000 270° West 130 150 6,700 1,260 Climbing Vancouver Center
02:36PM 49.8333 -119.5500 243° Southwest 130 150 7,900 1,020 Climbing Vancouver Center
02:37PM 49.8000 -119.6000 224° Southwest 150 173 8,800 600 Climbing Vancouver Center
02:38PM 49.7833 -119.6667 249° West 180 207 9,200 660 Climbing Vancouver Center
02:39PM 49.8167 -119.7333 308° West 180 207 10,200 960 Climbing Vancouver Center
02:40PM 49.8333 -119.7833 297° West 170 196 11,200 960 Climbing Vancouver Center
02:41PM 49.8500 -119.8333 297° West 160 184 12,200 960 Climbing Vancouver Center
02:42PM 49.8500 -119.9167 270° West 170 196 13,200 960 Climbing Vancouver Center
02:43PM 49.8500 -120.0000 270° West 170 196 14,200 1,020 Climbing Vancouver Center
02:44PM 49.8333 -120.0500 243° Southwest 170 196 15,300 960 Climbing Vancouver Center
02:45PM 49.8167 -120.1167 249° West 160 184 16,200 900 Climbing Vancouver Center
02:46PM 49.8167 -120.1833 270° West 160 184 17,200 1,020 Climbing Vancouver Center
02:47PM 49.8000 -120.2500 249° West 160 184 18,300 1,020 Climbing Vancouver Center
02:48PM 49.7833 -120.3333 253° West 160 184 19,300 960 Climbing Vancouver Center
02:49PM 49.7667 -120.3833 243° Southwest 160 184 20,300 960 Climbing Vancouver Center
02:50PM 49.7667 -120.4333 270° West 150 173 21,300 840 Climbing Vancouver Center
02:51PM 49.7667 -120.5167 270° West 150 173 22,000 300 Climbing Vancouver Center
02:52PM 49.7500 -120.6000 253° West 170 196 22,000  Level Vancouver Center
02:53PM 49.7333 -120.6667 249° West 200 230 22,000  Level Vancouver Center
02:54PM 49.7167 -120.7833 258° West 210 242 22,000  Level Vancouver Center
02:55PM 49.7000 -120.8500 249° West 220 253 22,000  Level Vancouver Center
02:56PM 49.6833 -120.9667 258° West 220 253 22,000  Level Vancouver Center
02:57PM 49.6667 -121.0333 249° West 220 253 22,000  Level Vancouver Center
02:58PM 49.6500 -121.1500 258° West 220 253 22,000  Level Vancouver Center
02:59PM 49.6500 -121.2167 270° West 220 253 22,000  Level Vancouver Center
03:00PM 49.6333 -121.3167 256° West 220 253 22,000  Level Vancouver Center
03:01PM 49.6167 -121.4000 253° West 220 253 22,000  Level Vancouver Center
03:02PM 49.6000 -121.5000 256° West 220 253 22,000  Level Vancouver Center
03:03PM 49.5833 -121.5833 253° West 220 253 22,000 -120 Level Vancouver Center
03:04PM 49.5667 -121.6833 256° West 220 253 21,800 -420 Descending Vancouver Center
03:05PM 49.5500 -121.7667 253° West 220 253 21,200 -840 Descending Vancouver Center
03:06PM 49.5333 -121.8667 256° West 220 253 20,200 -1,200 Descending Vancouver Center
03:07PM 49.5167 -121.9667 256° West 230 265 18,800 -1,500 Descending Vancouver Center
03:08PM 49.5167 -122.0500 270° West 240 276 17,200 -1,860 Descending Vancouver Center
03:09PM 49.4667 -122.1500 232° Southwest 240 276 15,100 -2,040 Descending Vancouver Center
03:10PM 49.4333 -122.2333 238° Southwest 230 265 13,200 -2,040 Descending Vancouver Center
03:11PM 49.4000 -122.3167 238° Southwest 220 253 11,100 -1,500 Descending Vancouver Center
03:12PM 49.3833 -122.3833 249° West 200 230 10,300 -720 Descending Vancouver Center
03:13PM 49.3500 -122.4333 224° Southwest 180 207 9,700 -780 Descending Vancouver Center
03:14PM 49.3167 -122.5167 238° Southwest 190 219 8,800 -960 Descending Vancouver Center
03:15PM 49.2667 -122.5167 180° South 180 207 7,800 -960 Descending Vancouver Center
03:16PM 49.2167 -122.5167 180° South 180 207 6,900 -960 Descending Vancouver Center
03:17PM 49.1833 -122.5667 224° Southwest 170 196 5,900 -1,020 Descending Vancouver Center
03:18PM 49.2000 -122.6500 287° West 180 207 4,900 -1,020 Descending Vancouver Center
03:19PM 49.2333 -122.6167 33° Northeast 170 196 3,900 -1,080 Descending Vancouver Center
03:20PM 49.2000 -122.5667 136° Southeast 160 184 2,800 -1,200 Descending Vancouver Center
03:21PM 49.1833 -122.6000 233° Southwest 130 150 1,600 -960 Descending Vancouver Center
03:22PM 49.2000 -122.6500 297° West 120 138 900 -600 Descending Vancouver Center
03:23PM 49.2000 -122.7000 270° West 110 127 500 -420 Descending Vancouver Center